Flight Track Log - Related Links

Times and Time Zones

All times are in EDT time to prevent confusion due to time zone crossing. See the N686DW flight status page for this flight to view local times or setup timezone preferences in your user account.

Time Position Orientation Groundspeed Altitude Reporting Facility
EDT Latitude Longitude Course Direction KTS MPH feet Rate Location/Type
Thu 10:57:45 AM 30.2189 -81.9069 218° Southwest 81 93 700  Level Jacksonville Center
Thu 10:58:46 AM 30.2003 -81.9239 218° Southwest 89 102 1,200 541 Climbing Jacksonville Center
Thu 10:59:47 AM 30.1772 -81.9267 186° South 83 96 1,800 492 Climbing Jacksonville Center
Thu 11:00:48 AM 30.1628 -81.9483 232° Southwest 89 102 2,200 98 Climbing Jacksonville Center
Thu 11:01:49 AM 30.1506 -81.9750 242° Southwest 89 102 2,000 -148 Descending Jacksonville Center
Thu 11:02:50 AM 30.1464 -82.0039 261° West 96 110 1,900 -49 Descending Jacksonville Center
Thu 11:03:51 AM 30.1736 -82.0131 344° North 97 112 1,900 49 Level Jacksonville Center
Thu 11:04:52 AM 30.1989 -82.0272 334° Northwest 107 123 2,000  Climbing Jacksonville Center
Thu 11:05:53 AM 30.2281 -82.0294 356° North 98 113 1,900 -248 Descending Jacksonville Center
Thu 11:06:53 AM 30.2406 -82.0100 53° Northeast 117 135 1,500 -443 Descending Jacksonville Center
Thu 11:07:55 AM 30.2319 -81.9767 107° East 106 122 1,000 -492 Descending Jacksonville Center
Thu 11:08:55 AM 30.2233 -81.9453 108° East 105 121 500 -148 Descending Jacksonville Center
Thu 11:09:57 AM 30.2147 -81.9142 108° East 94 108 700 188 Climbing Jacksonville Center
Thu 11:11:03 AM 30.2228 -81.8806 74° East 103 119 900 446 Climbing Jacksonville Center
Thu 11:11:58 AM 30.2250 -81.9044 276° West 73 84 1,600 517 Climbing Jacksonville Center
Thu 11:12:59 AM 30.2022 -81.9144 201° Southwest 96 110 1,900 148 Climbing Jacksonville Center
Thu 11:14:00 AM 30.1750 -81.9219 193° South 103 119 1,900  Level Jacksonville Center
Thu 11:15:07 AM 30.1439 -81.9172 173° South 101 116 1,900  Level Jacksonville Center
Thu 11:16:08 AM 30.1167 -81.9272 198° South 93 107 1,900 49 Level Jacksonville Center
Thu 11:17:10 AM 30.0917 -81.9347 195° South 98 113 2,000  Climbing Jacksonville Center
Thu 11:18:10 AM 30.0667 -81.9494 207° Southwest 96 110 1,900 -50 Descending Jacksonville Center
Thu 11:19:11 AM 30.0519 -81.9303 132° Southeast 117 135 1,900 49 Level Jacksonville Center
Thu 11:20:12 AM 30.0600 -81.8942 76° East 104 120 2,000 49 Climbing Jacksonville Center
Thu 11:21:13 AM 30.0767 -81.8747 45° Northeast 104 120 2,000 -141 Level Jacksonville Center
Thu 11:22:20 AM 30.1081 -81.8769 356° North 94 108 1,700 -246 Descending Jacksonville Center
Thu 11:23:15 AM 30.1308 -81.8767 North 96 110 1,500 -344 Descending Jacksonville Center
Thu 11:24:22 AM 30.1603 -81.8764 360° North 94 108 1,000 -469 Descending Jacksonville Center
Thu 11:25:23 AM 30.1831 -81.8761 North 96 110 500 -148 Descending Jacksonville Center
Thu 11:26:24 AM 30.2122 -81.8758 360° North 96 110 700 246 Climbing Jacksonville Center
Thu 11:27:25 AM 30.2147 -81.9047 276° West 89 102 1,000 443 Climbing Jacksonville Center
Thu 11:28:26 AM 30.2108 -81.9311 260° West 82 94 1,600 639 Climbing Jacksonville Center
Thu 11:29:27 AM 30.2089 -81.9600 266° West 79 91 2,300 569 Climbing Jacksonville Center
Thu 11:30:22 AM 30.2089 -81.9817 270° West 84 97 2,700 310 Climbing Jacksonville Center
Thu 11:31:23 AM 30.2278 -81.9861 349° North 119 137 2,900 197 Climbing Jacksonville Center

Login

Don't have an account? Register now (free) for customized features, flight alerts, and more!